Time;durP1;ratioP1;P1;durP2;ratioP2;P2;SDS_P1;SDS_P2;PMS_P1;PMS_P2;Temp;Humidity;BMP_temperature;BMP_pressure;BME280_temperature;BME280_humidity;BME280_pressure;Samples;Min_cycle;Max_cycle;Signal;HPM_P1;HPM_P2
2022/10/10 00:02:07;;;;;;;4.32;2.00;;;;;;;;;;5046900;28;20436;-45
2022/10/10 00:04:33;;;;;;;3.17;2.08;;;;;;;;;;5047561;28;20108;-46
2022/10/10 00:06:58;;;;;;;3.30;1.80;;;;;;;;;;5044234;28;20104;-47
2022/10/10 00:09:23;;;;;;;7.25;2.08;;;;;;;;;;5047412;28;20100;-47
2022/10/10 00:11:49;;;;;;;1.90;1.80;;;;;;;;;;5045705;28;20098;-47
2022/10/10 00:14:14;;;;;;;3.80;1.85;;;;;;;;;;5046758;28;20033;-44
2022/10/10 00:16:39;;;;;;;4.65;1.92;;;;;;;;;;5046687;28;20033;-45
2022/10/10 00:19:05;;;;;;;2.40;2.20;;;;;;;;;;5044814;28;20029;-45
2022/10/10 00:21:30;;;;;;;4.03;1.75;;;;;;;;;;5045207;28;20484;-45
2022/10/10 00:23:55;;;;;;;5.78;2.13;;;;;;;;;;5044827;28;20099;-46
2022/10/10 00:26:21;;;;;;;3.90;1.90;;;;;;;;;;5048330;28;20024;-45
2022/10/10 00:28:47;;;;;;;2.20;1.92;;;;;;;;;;5042559;28;20432;-46
2022/10/10 00:31:12;;;;;;;2.25;1.98;;;;;;;;;;5047288;28;20104;-45
2022/10/10 00:33:38;;;;;;;2.20;1.80;;;;;;;;;;5044392;28;20039;-47
2022/10/10 00:36:04;;;;;;;2.95;2.10;;;;;;;;;;5043972;28;20678;-44
2022/10/10 00:38:31;;;;;;;2.50;2.00;;;;;;;;;;5042273;28;20033;-46
2022/10/10 00:40:57;;;;;;;6.97;1.90;;;;;;;;;;5047878;28;20028;-46
2022/10/10 00:43:25;;;;;;;2.63;2.00;;;;;;;;;;5044682;28;20037;-45
2022/10/10 00:45:51;;;;;;;6.78;2.55;;;;;;;;;;5043306;28;20045;-46
2022/10/10 00:48:21;;;;;;;2.78;2.00;;;;;;;;;;5045776;28;20041;-46
2022/10/10 00:50:52;;;;;;;3.15;2.00;;;;;;;;;;5044690;28;20025;-47
2022/10/10 00:53:22;;;;;;;2.55;1.80;;;;;;;;;;5044133;28;20107;-44
2022/10/10 00:55:47;;;;;;;3.95;2.05;;;;;;;;;;5045666;28;20091;-44
2022/10/10 00:58:14;;;;;;;3.53;1.80;;;;;;;;;;5044639;28;20040;-45
2022/10/10 01:00:40;;;;;;;2.15;1.95;;;;;;;;;;5044771;28;20036;-45
2022/10/10 01:03:05;;;;;;;4.53;1.75;;;;;;;;;;5044385;28;20037;-47
2022/10/10 01:05:31;;;;;;;2.17;1.65;;;;;;;;;;5045504;28;20120;-44
2022/10/10 01:07:57;;;;;;;3.13;1.70;;;;;;;;;;5042669;28;20386;-46
2022/10/10 01:10:23;;;;;;;3.72;2.20;;;;;;;;;;5045331;28;20028;-48
2022/10/10 01:13:18;;;;;;;6.55;2.13;;;;;;;;;;5044656;28;20102;-48
2022/10/10 01:16:13;;;;;;;4.32;1.95;;;;;;;;;;5040886;28;20045;-46
2022/10/10 01:18:49;;;;;;;3.28;1.92;;;;;;;;;;5040031;28;20037;-45
2022/10/10 01:21:50;;;;;;;4.97;2.00;;;;;;;;;;5043773;28;20118;-46
2022/10/10 01:24:44;;;;;;;2.88;2.00;;;;;;;;;;5041153;28;20053;-48
2022/10/10 01:27:33;;;;;;;4.13;2.03;;;;;;;;;;4999408;28;20037;-45
2022/10/10 01:30:17;;;;;;;4.43;1.83;;;;;;;;;;5001289;28;20076;-44
2022/10/10 01:32:52;;;;;;;2.53;2.00;;;;;;;;;;5003120;28;20046;-49
2022/10/10 01:35:54;;;;;;;5.88;2.45;;;;;;;;;;5003658;28;20037;-49
2022/10/10 01:38:37;;;;;;;6.07;1.67;;;;;;;;;;4924864;29;20044;-45
2022/10/10 01:41:34;;;;;;;2.30;2.10;;;;;;;;;;4924873;29;20047;-43
2022/10/10 01:43:59;;;;;;;5.28;2.17;;;;;;;;;;4920719;29;20059;-44
2022/10/10 01:46:25;;;;;;;3.65;1.88;;;;;;;;;;4928528;29;20618;-45
2022/10/10 01:48:55;;;;;;;3.22;2.00;;;;;;;;;;4926132;29;20570;-47
2022/10/10 01:51:59;;;;;;;3.35;2.08;;;;;;;;;;4926604;29;20043;-44
2022/10/10 01:54:37;;;;;;;6.20;1.90;;;;;;;;;;4926491;29;20047;-49
2022/10/10 01:57:18;;;;;;;4.70;2.22;;;;;;;;;;4911674;29;20051;-48
2022/10/10 01:59:57;;;;;;;2.85;2.28;;;;;;;;;;4925378;29;20031;-47
2022/10/10 02:03:01;;;;;;;4.05;2.17;;;;;;;;;;4925464;29;20513;-49
2022/10/10 02:05:58;;;;;;;5.35;2.03;;;;;;;;;;4951665;28;20456;-45
2022/10/10 02:08:34;;;;;;;2.13;1.92;;;;;;;;;;4949813;28;20432;-45
2022/10/10 02:11:07;;;;;;;4.45;2.65;;;;;;;;;;4957200;28;20039;-47
2022/10/10 02:14:01;;;;;;;3.75;2.63;;;;;;;;;;4952878;28;20047;-45
2022/10/10 02:16:32;;;;;;;7.20;2.00;;;;;;;;;;5042303;28;20580;-49
2022/10/10 02:19:01;;;;;;;3.58;2.08;;;;;;;;;;5044530;28;20044;-49
2022/10/10 02:21:28;;;;;;;3.88;1.95;;;;;;;;;;5043291;28;20032;-43
2022/10/10 02:23:58;;;;;;;2.65;1.95;;;;;;;;;;5043195;28;20124;-47
2022/10/10 02:26:27;;;;;;;4.03;2.15;;;;;;;;;;5043446;28;20405;-47
2022/10/10 02:29:09;;;;;;;3.40;2.05;;;;;;;;;;5041771;28;20030;-44
2022/10/10 02:31:34;;;;;;;;;;;;;;;;;;5048894;28;20044;-46
2022/10/10 02:34:06;;;;;;;2.00;1.75;;;;;;;;;;5049743;28;20365;-44
2022/10/10 02:36:32;;;;;;;3.35;2.28;;;;;;;;;;5051167;28;20386;-43
2022/10/10 02:38:58;;;;;;;5.95;2.83;;;;;;;;;;5046022;28;20037;-45
2022/10/10 02:41:24;;;;;;;3.33;1.70;;;;;;;;;;5048943;28;20404;-49
2022/10/10 02:43:51;;;;;;;5.32;2.10;;;;;;;;;;5045008;28;20079;-47
2022/10/10 02:46:16;;;;;;;2.53;2.10;;;;;;;;;;5046620;28;20175;-45
2022/10/10 02:48:42;;;;;;;3.22;2.00;;;;;;;;;;5046573;28;20611;-45
2022/10/10 02:51:08;;;;;;;4.10;1.98;;;;;;;;;;5049705;28;20072;-45
2022/10/10 02:53:35;;;;;;;3.35;2.05;;;;;;;;;;5044259;28;20048;-47
2022/10/10 02:56:01;;;;;;;2.17;1.98;;;;;;;;;;5046144;28;20095;-45
2022/10/10 02:58:26;;;;;;;3.20;1.67;;;;;;;;;;5044877;28;20037;-43
2022/10/10 03:00:51;;;;;;;2.60;1.77;;;;;;;;;;5046103;28;20036;-48
2022/10/10 03:03:17;;;;;;;4.63;2.30;;;;;;;;;;5048790;28;20490;-47
2022/10/10 03:05:42;;;;;;;5.97;2.05;;;;;;;;;;5046542;28;20040;-45
2022/10/10 03:08:07;;;;;;;3.40;1.98;;;;;;;;;;5046792;28;20059;-46
2022/10/10 03:10:33;;;;;;;2.60;1.75;;;;;;;;;;5047695;28;20044;-47
2022/10/10 03:12:58;;;;;;;4.05;2.17;;;;;;;;;;5048381;28;20057;-44
2022/10/10 03:15:23;;;;;;;2.63;1.90;;;;;;;;;;5047042;28;20508;-45
2022/10/10 03:17:49;;;;;;;3.72;1.83;;;;;;;;;;5044696;28;20043;-44
2022/10/10 03:20:14;;;;;;;2.22;1.70;;;;;;;;;;5049328;28;20029;-47
2022/10/10 03:22:40;;;;;;;7.13;2.13;;;;;;;;;;5043598;28;20167;-47
2022/10/10 03:25:05;;;;;;;3.10;2.00;;;;;;;;;;5048797;28;20028;-43
2022/10/10 03:27:31;;;;;;;4.28;1.85;;;;;;;;;;5047463;28;20051;-46
2022/10/10 03:29:56;;;;;;;2.10;1.90;;;;;;;;;;5047522;28;20055;-45
2022/10/10 03:32:21;;;;;;;4.00;1.90;;;;;;;;;;5046845;28;20041;-45
2022/10/10 03:34:47;;;;;;;2.72;1.80;;;;;;;;;;5045674;28;20520;-44
2022/10/10 03:37:12;;;;;;;4.63;1.88;;;;;;;;;;5047137;28;20635;-47
2022/10/10 03:39:38;;;;;;;5.68;1.85;;;;;;;;;;5044951;28;20485;-46
2022/10/10 03:42:03;;;;;;;2.85;1.85;;;;;;;;;;5045638;28;20037;-46
2022/10/10 03:44:29;;;;;;;1.90;1.80;;;;;;;;;;5044753;28;20032;-44
2022/10/10 03:46:54;;;;;;;4.30;2.20;;;;;;;;;;5047921;28;20051;-44
2022/10/10 03:49:19;;;;;;;2.53;1.90;;;;;;;;;;5046148;28;20108;-44
2022/10/10 03:51:45;;;;;;;3.95;2.00;;;;;;;;;;5045758;28;20033;-44
2022/10/10 03:54:10;;;;;;;5.60;2.08;;;;;;;;;;5046815;28;20053;-44
2022/10/10 03:56:36;;;;;;;2.95;1.75;;;;;;;;;;5045659;28;20116;-44
2022/10/10 03:59:02;;;;;;;2.05;1.80;;;;;;;;;;5046821;28;20104;-44
2022/10/10 04:01:28;;;;;;;4.82;2.03;;;;;;;;;;5047525;28;20032;-45
2022/10/10 04:03:54;;;;;;;3.00;1.88;;;;;;;;;;5047724;28;20051;-43
2022/10/10 04:06:20;;;;;;;1.90;1.75;;;;;;;;;;5046135;28;20107;-44
2022/10/10 04:08:45;;;;;;;4.30;2.15;;;;;;;;;;5045706;28;20044;-45
2022/10/10 04:11:10;;;;;;;3.60;1.90;;;;;;;;;;5047387;28;20493;-45
2022/10/10 04:13:36;;;;;;;3.33;2.08;;;;;;;;;;5045702;28;20041;-46
2022/10/10 04:16:02;;;;;;;4.43;2.20;;;;;;;;;;5045867;28;20043;-44
2022/10/10 04:18:28;;;;;;;3.03;1.92;;;;;;;;;;5047210;28;20045;-48
2022/10/10 04:20:53;;;;;;;2.95;2.00;;;;;;;;;;5045846;28;20055;-43
2022/10/10 04:23:19;;;;;;;3.95;2.58;;;;;;;;;;5043204;28;20450;-45
2022/10/10 04:25:44;;;;;;;3.25;2.00;;;;;;;;;;5048132;28;20031;-44
2022/10/10 04:28:11;;;;;;;1.88;1.77;;;;;;;;;;5043830;28;20115;-45
2022/10/10 04:30:36;;;;;;;5.65;2.03;;;;;;;;;;5045515;28;20091;-45
2022/10/10 04:33:01;;;;;;;5.55;1.88;;;;;;;;;;5042633;28;20048;-47
2022/10/10 04:35:27;;;;;;;4.47;1.70;;;;;;;;;;5043039;28;20033;-48
2022/10/10 04:37:52;;;;;;;1.75;1.65;;;;;;;;;;5046442;28;20041;-43
2022/10/10 04:40:18;;;;;;;3.47;1.65;;;;;;;;;;5042459;28;20056;-45
2022/10/10 04:42:43;;;;;;;3.35;1.95;;;;;;;;;;5041409;28;20442;-44
2022/10/10 04:45:09;;;;;;;1.88;1.67;;;;;;;;;;5047614;28;20029;-46
2022/10/10 04:47:34;;;;;;;2.97;1.70;;;;;;;;;;5044451;28;20128;-46
2022/10/10 04:49:59;;;;;;;6.90;1.92;;;;;;;;;;5043035;28;20040;-44
2022/10/10 04:52:25;;;;;;;3.85;1.85;;;;;;;;;;5042322;28;20037;-46
2022/10/10 04:54:50;;;;;;;5.60;1.80;;;;;;;;;;5041337;28;20563;-46
2022/10/10 04:57:16;;;;;;;2.25;1.80;;;;;;;;;;5040096;28;20048;-47
2022/10/10 04:59:41;;;;;;;2.90;2.10;;;;;;;;;;5048943;28;20033;-43
2022/10/10 05:02:06;;;;;;;2.00;1.85;;;;;;;;;;5038081;28;20033;-43
2022/10/10 05:04:32;;;;;;;3.35;2.25;;;;;;;;;;5037011;28;20029;-44
2022/10/10 05:06:57;;;;;;;5.97;2.10;;;;;;;;;;5036092;28;20036;-47
2022/10/10 05:09:23;;;;;;;4.50;1.90;;;;;;;;;;5040293;28;20033;-46
2022/10/10 05:11:48;;;;;;;2.00;1.80;;;;;;;;;;5034852;28;20635;-43
2022/10/10 05:14:14;;;;;;;5.70;1.88;;;;;;;;;;5037675;28;20037;-44
2022/10/10 05:16:39;;;;;;;6.22;1.80;;;;;;;;;;5034913;28;20024;-43
2022/10/10 05:19:05;;;;;;;1.83;1.73;;;;;;;;;;5034958;28;20029;-45
2022/10/10 05:21:30;;;;;;;3.75;1.83;;;;;;;;;;5034752;28;20037;-44
2022/10/10 05:23:55;;;;;;;5.28;1.90;;;;;;;;;;5044804;28;20045;-43
2022/10/10 05:26:21;;;;;;;3.33;1.85;;;;;;;;;;5041915;28;20481;-43
2022/10/10 05:28:46;;;;;;;1.98;1.63;;;;;;;;;;5044268;28;20779;-43
2022/10/10 05:31:12;;;;;;;3.70;2.10;;;;;;;;;;5045775;28;20037;-48
2022/10/10 05:33:38;;;;;;;3.30;2.00;;;;;;;;;;5041087;28;20494;-47
2022/10/10 05:36:09;;;;;;;3.33;1.98;;;;;;;;;;5041574;28;22274;-45
2022/10/10 05:38:35;;;;;;;3.23;2.00;;;;;;;;;;5044930;28;20060;-45
2022/10/10 05:41:01;;;;;;;2.13;2.00;;;;;;;;;;5045125;28;20052;-45
2022/10/10 05:43:26;;;;;;;5.57;2.03;;;;;;;;;;5022753;28;20447;-49
2022/10/10 05:45:52;;;;;;;4.05;1.75;;;;;;;;;;5043269;28;22311;-47
2022/10/10 05:48:17;;;;;;;2.20;2.10;;;;;;;;;;5043034;28;20041;-45
2022/10/10 05:50:53;;;;;;;4.13;1.90;;;;;;;;;;5037877;28;20313;-44
2022/10/10 05:53:18;;;;;;;3.45;1.98;;;;;;;;;;5040698;28;20056;-45
2022/10/10 05:55:43;;;;;;;6.75;2.20;;;;;;;;;;5037972;28;20049;-46
2022/10/10 05:58:12;;;;;;;2.45;1.95;;;;;;;;;;5038506;28;20143;-46
2022/10/10 06:00:38;;;;;;;5.32;1.90;;;;;;;;;;5041968;28;20029;-49
2022/10/10 06:03:03;;;;;;;4.45;2.35;;;;;;;;;;5043568;28;20356;-47
2022/10/10 06:05:29;;;;;;;3.95;2.20;;;;;;;;;;5042482;28;20544;-44
2022/10/10 06:07:54;;;;;;;3.92;1.95;;;;;;;;;;5041223;28;20055;-45
2022/10/10 06:10:19;;;;;;;4.20;1.70;;;;;;;;;;5036346;28;20020;-47
2022/10/10 06:12:45;;;;;;;2.30;1.95;;;;;;;;;;5037035;28;20025;-45
2022/10/10 06:15:10;;;;;;;6.35;2.28;;;;;;;;;;5044852;28;20116;-44
2022/10/10 06:17:36;;;;;;;4.60;2.10;;;;;;;;;;5043031;28;20068;-48
2022/10/10 06:20:02;;;;;;;2.85;2.08;;;;;;;;;;5046471;28;20041;-48
2022/10/10 06:22:28;;;;;;;3.80;2.40;;;;;;;;;;5046803;28;20091;-46
2022/10/10 06:24:53;;;;;;;9.35;2.50;;;;;;;;;;5042291;28;20033;-46
2022/10/10 06:27:18;;;;;;;22.20;3.75;;;;;;;;;;5039980;28;20044;-47
2022/10/10 06:29:44;;;;;;;12.88;2.65;;;;;;;;;;5027257;28;20021;-49
2022/10/10 06:32:09;;;;;;;11.77;2.90;;;;;;;;;;5044238;28;20076;-48
2022/10/10 06:34:34;;;;;;;9.40;3.00;;;;;;;;;;5039394;28;20060;-46
2022/10/10 06:37:00;;;;;;;5.30;2.15;;;;;;;;;;5041274;28;20051;-45
2022/10/10 06:39:25;;;;;;;2.55;2.28;;;;;;;;;;5041924;28;20033;-49
2022/10/10 06:41:50;;;;;;;2.90;2.25;;;;;;;;;;5042945;28;20125;-45
2022/10/10 06:44:16;;;;;;;2.72;2.22;;;;;;;;;;5044421;28;20037;-44
2022/10/10 06:46:43;;;;;;;6.68;2.20;;;;;;;;;;5042924;28;20032;-46
2022/10/10 06:49:08;;;;;;;5.13;3.22;;;;;;;;;;5042726;28;20034;-49
2022/10/10 06:51:33;;;;;;;2.50;1.98;;;;;;;;;;5043361;28;20041;-47
2022/10/10 06:53:59;;;;;;;5.97;2.17;;;;;;;;;;5046074;28;20041;-47
2022/10/10 06:56:25;;;;;;;2.92;2.00;;;;;;;;;;5043384;28;20052;-45
2022/10/10 06:58:51;;;;;;;2.28;2.00;;;;;;;;;;5042978;28;20036;-48
2022/10/10 07:01:18;;;;;;;3.40;1.90;;;;;;;;;;5045296;28;20078;-44
2022/10/10 07:03:43;;;;;;;5.10;2.50;;;;;;;;;;5043172;28;20069;-46
2022/10/10 07:06:10;;;;;;;5.55;1.98;;;;;;;;;;5044818;28;20060;-48
2022/10/10 07:08:36;;;;;;;2.83;2.00;;;;;;;;;;5044818;28;20042;-46
2022/10/10 07:11:02;;;;;;;3.20;1.95;;;;;;;;;;5044769;28;20032;-46
2022/10/10 07:13:27;;;;;;;3.75;1.90;;;;;;;;;;5043788;28;20047;-44
2022/10/10 07:15:53;;;;;;;2.78;2.20;;;;;;;;;;5043067;28;20036;-46
2022/10/10 07:18:19;;;;;;;3.63;2.13;;;;;;;;;;5048546;28;20040;-49
2022/10/10 07:20:44;;;;;;;3.40;2.05;;;;;;;;;;5045031;28;20033;-47
2022/10/10 07:23:10;;;;;;;6.85;2.05;;;;;;;;;;5047442;28;20370;-47
2022/10/10 07:25:42;;;;;;;5.75;1.90;;;;;;;;;;5046639;28;20056;-45
2022/10/10 07:28:08;;;;;;;2.17;1.95;;;;;;;;;;5041013;28;20108;-48
2022/10/10 07:30:44;;;;;;;3.67;1.70;;;;;;;;;;5049923;28;20112;-48
2022/10/10 07:33:11;;;;;;;3.35;1.98;;;;;;;;;;5044261;28;20037;-48
2022/10/10 07:35:36;;;;;;;4.75;2.15;;;;;;;;;;5046749;28;20025;-44
2022/10/10 07:38:01;;;;;;;4.78;1.90;;;;;;;;;;5047389;28;20186;-47
2022/10/10 07:40:27;;;;;;;4.03;1.75;;;;;;;;;;5047371;28;20034;-48
2022/10/10 07:42:53;;;;;;;6.10;1.77;;;;;;;;;;5045726;28;20040;-46
2022/10/10 07:45:18;;;;;;;4.72;1.83;;;;;;;;;;5046181;28;20063;-44
2022/10/10 07:47:43;;;;;;;2.33;1.67;;;;;;;;;;5045578;28;20096;-48
2022/10/10 07:50:10;;;;;;;7.07;1.67;;;;;;;;;;5047500;28;20025;-45
2022/10/10 07:52:36;;;;;;;4.88;2.05;;;;;;;;;;5047296;28;20069;-50
2022/10/10 07:55:03;;;;;;;3.60;1.65;;;;;;;;;;5049384;28;20485;-44
2022/10/10 07:57:33;;;;;;;2.67;1.70;;;;;;;;;;5049672;28;20048;-45
2022/10/10 07:59:58;;;;;;;3.45;1.58;;;;;;;;;;5045265;28;20029;-49
2022/10/10 08:02:24;;;;;;;3.58;1.80;;;;;;;;;;5045740;28;20052;-46
2022/10/10 08:04:49;;;;;;;3.10;1.40;;;;;;;;;;5046256;28;20108;-49
2022/10/10 08:07:14;;;;;;;3.58;1.70;;;;;;;;;;5046838;28;20045;-47
2022/10/10 08:09:40;;;;;;;2.72;1.65;;;;;;;;;;5047829;28;20623;-50
2022/10/10 08:12:05;;;;;;;2.30;1.65;;;;;;;;;;5046452;28;20439;-48
2022/10/10 08:14:30;;;;;;;1.67;1.58;;;;;;;;;;5046096;28;20056;-44
2022/10/10 08:16:56;;;;;;;2.33;1.60;;;;;;;;;;5044368;28;20021;-48
2022/10/10 08:19:21;;;;;;;2.95;1.70;;;;;;;;;;5047198;28;20037;-46
2022/10/10 08:21:46;;;;;;;2.30;2.00;;;;;;;;;;5045371;28;20123;-45
2022/10/10 08:24:12;;;;;;;4.75;1.80;;;;;;;;;;5049646;28;20466;-49
2022/10/10 08:26:37;;;;;;;3.90;1.92;;;;;;;;;;5049249;28;20032;-50
2022/10/10 08:29:02;;;;;;;1.80;1.70;;;;;;;;;;5045740;28;20037;-47
2022/10/10 08:31:29;;;;;;;3.15;1.90;;;;;;;;;;5042006;28;20470;-50
2022/10/10 08:33:55;;;;;;;2.25;1.90;;;;;;;;;;5045955;28;20040;-47
2022/10/10 08:36:22;;;;;;;5.47;1.67;;;;;;;;;;5045807;28;20029;-46
2022/10/10 08:38:47;;;;;;;8.57;1.98;;;;;;;;;;5043949;28;20402;-46
2022/10/10 08:41:41;;;;;;;3.75;1.88;;;;;;;;;;5048643;28;20027;-44
2022/10/10 08:44:22;;;;;;;6.72;2.05;;;;;;;;;;5046972;28;20037;-44
2022/10/10 08:47:01;;;;;;;4.28;1.73;;;;;;;;;;5041362;28;20048;-44
2022/10/10 08:49:33;;;;;;;6.35;2.08;;;;;;;;;;5041532;28;20124;-44
2022/10/10 08:52:07;;;;;;;1.85;1.33;;;;;;;;;;5044599;28;20035;-44
2022/10/10 08:54:35;;;;;;;7.75;2.15;;;;;;;;;;5045235;28;20036;-44
2022/10/10 08:57:04;;;;;;;6.10;1.90;;;;;;;;;;5046249;28;20077;-44
2022/10/10 08:59:36;;;;;;;6.35;2.00;;;;;;;;;;5045522;28;20036;-47
2022/10/10 09:02:41;;;;;;;3.85;1.80;;;;;;;;;;5043385;28;20041;-44
2022/10/10 09:05:14;;;;;;;5.15;2.03;;;;;;;;;;5041943;28;20048;-48
2022/10/10 09:07:45;;;;;;;2.72;1.83;;;;;;;;;;5044044;28;20033;-46
2022/10/10 09:10:33;;;;;;;3.85;2.00;;;;;;;;;;5046822;28;20029;-43
2022/10/10 09:13:01;;;;;;;5.05;2.13;;;;;;;;;;5044353;28;20400;-44
2022/10/10 09:15:36;;;;;;;4.95;2.00;;;;;;;;;;5045005;28;20754;-46
2022/10/10 09:18:01;;;;;;;10.60;2.30;;;;;;;;;;5043484;28;20128;-46
2022/10/10 09:21:02;;;;;;;4.72;1.95;;;;;;;;;;5047600;28;21856;-43
2022/10/10 09:23:45;;;;;;;5.45;1.67;;;;;;;;;;5043604;28;20055;-44
2022/10/10 09:26:13;;;;;;;3.13;2.13;;;;;;;;;;5046658;28;20569;-45
2022/10/10 09:28:44;;;;;;;6.63;2.33;;;;;;;;;;5044946;28;20130;-46
2022/10/10 09:31:27;;;;;;;5.85;2.03;;;;;;;;;;5044133;28;20041;-45
2022/10/10 09:33:58;;;;;;;4.78;2.13;;;;;;;;;;5041891;28;20520;-44
2022/10/10 09:36:31;;;;;;;10.35;2.80;;;;;;;;;;5047118;28;20040;-44
2022/10/10 09:39:05;;;;;;;4.10;2.55;;;;;;;;;;5042147;28;20041;-43
2022/10/10 09:41:39;;;;;;;5.72;2.33;;;;;;;;;;5047553;28;20114;-43
2022/10/10 09:44:09;;;;;;;7.07;2.40;;;;;;;;;;5042352;28;20490;-44
2022/10/10 09:46:35;;;;;;;9.45;2.20;;;;;;;;;;5044666;28;20033;-47
2022/10/10 09:49:01;;;;;;;6.97;2.15;;;;;;;;;;5045535;28;20180;-44
2022/10/10 09:51:28;;;;;;;6.03;2.40;;;;;;;;;;5045645;28;20112;-43
2022/10/10 09:53:54;;;;;;;2.88;1.63;;;;;;;;;;5046658;28;20112;-45
2022/10/10 09:56:23;;;;;;;7.15;2.30;;;;;;;;;;5041205;28;20178;-46
2022/10/10 09:58:51;;;;;;;3.58;1.80;;;;;;;;;;5044183;28;20051;-45
2022/10/10 10:01:25;;;;;;;6.72;2.15;;;;;;;;;;5046735;28;20157;-49
2022/10/10 10:04:09;;;;;;;9.10;2.60;;;;;;;;;;5044855;28;20041;-45
2022/10/10 10:06:35;;;;;;;3.72;2.00;;;;;;;;;;5044715;28;20052;-43
2022/10/10 10:09:05;;;;;;;3.08;2.00;;;;;;;;;;5046285;28;20037;-44
2022/10/10 10:11:33;;;;;;;12.48;2.55;;;;;;;;;;5042238;28;20397;-43
2022/10/10 10:14:01;;;;;;;5.85;2.45;;;;;;;;;;5043328;28;20037;-46
2022/10/10 10:16:35;;;;;;;7.72;2.15;;;;;;;;;;5043393;28;20043;-47
2022/10/10 10:19:02;;;;;;;7.40;2.20;;;;;;;;;;5041362;28;20520;-46
2022/10/10 10:21:28;;;;;;;5.47;2.10;;;;;;;;;;5035467;28;20025;-45
2022/10/10 10:23:59;;;;;;;3.20;2.10;;;;;;;;;;5040405;28;20172;-47
2022/10/10 10:26:46;;;;;;;4.15;2.10;;;;;;;;;;5043574;28;20215;-45
2022/10/10 10:29:29;;;;;;;5.03;1.80;;;;;;;;;;5027173;28;20532;-43
2022/10/10 10:32:12;;;;;;;4.28;1.77;;;;;;;;;;5042252;28;20041;-44
2022/10/10 10:35:06;;;;;;;4.35;2.03;;;;;;;;;;5045109;28;20033;-44
2022/10/10 10:37:59;;;;;;;6.22;1.80;;;;;;;;;;5049131;28;20073;-46
2022/10/10 10:40:40;;;;;;;2.45;1.80;;;;;;;;;;5045909;28;20393;-45
2022/10/10 10:43:31;;;;;;;2.90;1.70;;;;;;;;;;5044589;28;20053;-43
2022/10/10 10:46:09;;;;;;;4.70;1.90;;;;;;;;;;5043738;28;20040;-44
2022/10/10 10:49:00;;;;;;;3.17;2.05;;;;;;;;;;5045170;28;20048;-43
2022/10/10 10:52:04;;;;;;;4.88;1.67;;;;;;;;;;5047019;28;20045;-48
2022/10/10 10:54:29;;;;;;;4.45;2.03;;;;;;;;;;5047489;28;20068;-44
2022/10/10 10:57:08;;;;;;;6.35;1.98;;;;;;;;;;5048620;28;20429;-46
2022/10/10 10:59:56;;;;;;;2.90;1.90;;;;;;;;;;5049407;28;20041;-45
2022/10/10 11:03:00;;;;;;;5.53;1.85;;;;;;;;;;5037137;28;20150;-46
2022/10/10 11:05:34;;;;;;;3.90;1.70;;;;;;;;;;5049293;28;20033;-43
2022/10/10 11:08:12;;;;;;;6.32;1.90;;;;;;;;;;5048220;28;20033;-43
2022/10/10 11:10:56;;;;;;;4.25;1.77;;;;;;;;;;5048807;28;20115;-43
2022/10/10 11:13:48;;;;;;;8.73;1.80;;;;;;;;;;5047824;28;20045;-52
2022/10/10 11:16:22;;;;;;;9.32;2.35;;;;;;;;;;5048477;28;20029;-48
2022/10/10 11:18:56;;;;;;;7.72;1.70;;;;;;;;;;5044868;28;20378;-43
2022/10/10 11:21:25;;;;;;;7.18;2.42;;;;;;;;;;5048569;28;20024;-45
2022/10/10 11:24:01;;;;;;;4.22;1.83;;;;;;;;;;5047954;28;20064;-43
2022/10/10 11:26:34;;;;;;;5.05;1.98;;;;;;;;;;5047900;28;20044;-49
2022/10/10 11:29:09;;;;;;;2.47;1.70;;;;;;;;;;5046978;28;20068;-44
2022/10/10 11:31:44;;;;;;;3.83;2.00;;;;;;;;;;5047732;28;20068;-43
2022/10/10 11:34:20;;;;;;;5.60;2.13;;;;;;;;;;5044443;28;20061;-43
2022/10/10 11:36:46;;;;;;;5.63;1.90;;;;;;;;;;5049134;28;20038;-46
2022/10/10 11:39:26;;;;;;;3.78;2.40;;;;;;;;;;5046730;28;20384;-43
2022/10/10 11:42:01;;;;;;;7.10;2.40;;;;;;;;;;5048082;28;20043;-46
2022/10/10 11:44:32;;;;;;;5.80;2.20;;;;;;;;;;5047692;28;20112;-47
2022/10/10 11:47:08;;;;;;;3.00;1.73;;;;;;;;;;5046689;28;20036;-45
2022/10/10 11:49:52;;;;;;;7.03;2.13;;;;;;;;;;5046520;28;20104;-45
2022/10/10 11:52:32;;;;;;;3.47;1.80;;;;;;;;;;5047096;28;20073;-45
2022/10/10 11:55:09;;;;;;;3.33;2.15;;;;;;;;;;5041474;28;20041;-43
2022/10/10 11:57:46;;;;;;;3.20;1.77;;;;;;;;;;5047692;28;20045;-48
2022/10/10 12:00:14;;;;;;;11.18;2.22;;;;;;;;;;5047751;28;20029;-43
2022/10/10 12:02:42;;;;;;;3.90;1.90;;;;;;;;;;5045566;28;20041;-44
2022/10/10 12:05:20;;;;;;;7.10;1.92;;;;;;;;;;5047241;28;20459;-47
2022/10/10 12:08:03;;;;;;;7.72;2.38;;;;;;;;;;5041954;28;20037;-43
2022/10/10 12:10:40;;;;;;;6.28;2.42;;;;;;;;;;5045272;28;20539;-43
2022/10/10 12:13:29;;;;;;;6.95;2.25;;;;;;;;;;5046808;28;20548;-47
2022/10/10 12:15:56;;;;;;;3.35;1.90;;;;;;;;;;5048011;28;20025;-46
2022/10/10 12:18:37;;;;;;;4.55;1.67;;;;;;;;;;5046394;28;20120;-45
2022/10/10 12:21:08;;;;;;;7.38;1.98;;;;;;;;;;5048720;28;20048;-45
2022/10/10 12:23:34;;;;;;;9.05;1.73;;;;;;;;;;5044577;28;20037;-46
2022/10/10 12:25:59;;;;;;;5.93;1.95;;;;;;;;;;5046871;28;20025;-44
2022/10/10 12:28:35;;;;;;;5.25;2.40;;;;;;;;;;5046007;28;20555;-45
2022/10/10 12:31:03;;;;;;;4.57;2.08;;;;;;;;;;5045615;28;20024;-44
2022/10/10 12:33:31;;;;;;;5.43;1.70;;;;;;;;;;5046399;28;20179;-45
2022/10/10 12:36:17;;;;;;;4.38;1.98;;;;;;;;;;5046260;28;20385;-45
2022/10/10 12:39:01;;;;;;;4.55;2.38;;;;;;;;;;5046744;28;20417;-48
2022/10/10 12:41:49;;;;;;;4.03;2.15;;;;;;;;;;5045321;28;20128;-46
2022/10/10 12:44:40;;;;;;;3.00;1.92;;;;;;;;;;5045516;28;20050;-44
2022/10/10 12:47:14;;;;;;;7.63;2.20;;;;;;;;;;5047624;28;20045;-47
2022/10/10 12:49:55;;;;;;;2.90;1.83;;;;;;;;;;5047981;28;20021;-45
2022/10/10 12:52:35;;;;;;;5.20;2.17;;;;;;;;;;5047027;28;20043;-44
2022/10/10 12:55:08;;;;;;;3.10;1.90;;;;;;;;;;5044884;28;20090;-43
2022/10/10 12:57:41;;;;;;;2.53;1.85;;;;;;;;;;5044163;28;20033;-45
2022/10/10 13:00:17;;;;;;;5.80;2.63;;;;;;;;;;5047497;28;21432;-49
2022/10/10 13:02:50;;;;;;;4.80;2.05;;;;;;;;;;5044559;28;20048;-47
2022/10/10 13:05:19;;;;;;;3.13;1.83;;;;;;;;;;5045604;28;20025;-48
2022/10/10 13:07:47;;;;;;;5.18;2.40;;;;;;;;;;5042035;28;20051;-46
2022/10/10 13:10:22;;;;;;;6.75;2.35;;;;;;;;;;5045832;28;20415;-45
2022/10/10 13:13:17;;;;;;;5.03;1.98;;;;;;;;;;5044756;28;20045;-45
2022/10/10 13:15:54;;;;;;;3.33;2.50;;;;;;;;;;5043265;28;20041;-46
2022/10/10 13:18:38;;;;;;;4.47;2.10;;;;;;;;;;5042682;28;20132;-45
2022/10/10 13:21:06;;;;;;;5.80;2.30;;;;;;;;;;5044294;28;20033;-47
2022/10/10 13:23:35;;;;;;;5.07;2.25;;;;;;;;;;5046355;28;20033;-45
2022/10/10 13:26:00;;;;;;;6.13;1.95;;;;;;;;;;5042760;28;20032;-47
2022/10/10 13:28:26;;;;;;;5.22;2.25;;;;;;;;;;5044643;28;20053;-44
2022/10/10 13:30:52;;;;;;;6.63;2.90;;;;;;;;;;5047024;28;20025;-43
2022/10/10 13:33:20;;;;;;;7.10;2.05;;;;;;;;;;5045124;28;20049;-45
2022/10/10 13:35:47;;;;;;;8.77;2.38;;;;;;;;;;5043806;28;20032;-45
2022/10/10 13:38:15;;;;;;;3.17;2.10;;;;;;;;;;5046023;28;20065;-47
2022/10/10 13:40:42;;;;;;;4.53;1.95;;;;;;;;;;5035081;28;20025;-44
2022/10/10 13:43:15;;;;;;;13.70;2.67;;;;;;;;;;5044886;28;20045;-44
2022/10/10 13:46:02;;;;;;;8.85;2.10;;;;;;;;;;5043970;28;20025;-43
2022/10/10 13:48:34;;;;;;;4.68;1.95;;;;;;;;;;5042183;28;20489;-47
2022/10/10 13:51:01;;;;;;;4.22;2.20;;;;;;;;;;5043926;28;20083;-50
2022/10/10 13:53:26;;;;;;;5.72;2.25;;;;;;;;;;5048942;28;20059;-46
2022/10/10 13:56:15;;;;;;;12.52;2.33;;;;;;;;;;5043925;28;20052;-43
2022/10/10 13:59:06;;;;;;;6.47;2.10;;;;;;;;;;5044604;28;20123;-48
2022/10/10 14:01:43;;;;;;;8.43;2.45;;;;;;;;;;5045235;28;20040;-44
2022/10/10 14:04:11;;;;;;;6.75;2.20;;;;;;;;;;5044787;28;20060;-44
2022/10/10 14:06:38;;;;;;;5.03;2.17;;;;;;;;;;5044859;28;20036;-48
2022/10/10 14:09:14;;;;;;;3.60;2.10;;;;;;;;;;5044754;28;20090;-43
2022/10/10 14:11:42;;;;;;;7.20;2.50;;;;;;;;;;5045585;28;20107;-46
2022/10/10 14:14:20;;;;;;;5.10;2.00;;;;;;;;;;5048315;28;20024;-45
2022/10/10 14:17:03;;;;;;;6.40;2.50;;;;;;;;;;5043404;28;20025;-44
2022/10/10 14:19:29;;;;;;;7.97;2.83;;;;;;;;;;5041446;28;20030;-45
2022/10/10 14:21:55;;;;;;;11.65;3.22;;;;;;;;;;5040439;28;20033;-44
2022/10/10 14:24:20;;;;;;;10.77;2.40;;;;;;;;;;5045311;28;20071;-46
2022/10/10 14:26:46;;;;;;;13.13;3.15;;;;;;;;;;5047301;28;20041;-47
2022/10/10 14:29:16;;;;;;;8.85;2.85;;;;;;;;;;5049358;28;20106;-49
2022/10/10 14:31:42;;;;;;;9.88;2.78;;;;;;;;;;5046435;28;20559;-45
2022/10/10 14:34:12;;;;;;;11.30;2.70;;;;;;;;;;5053179;28;20477;-46
2022/10/10 14:36:48;;;;;;;5.70;2.72;;;;;;;;;;5047574;28;20120;-43
2022/10/10 14:39:16;;;;;;;6.78;2.35;;;;;;;;;;5048384;28;20257;-48
2022/10/10 14:41:42;;;;;;;10.98;2.88;;;;;;;;;;5044182;28;20960;-47
2022/10/10 14:44:07;;;;;;;8.27;2.42;;;;;;;;;;5049982;28;20057;-46
2022/10/10 14:46:33;;;;;;;6.05;2.38;;;;;;;;;;5048952;28;20036;-48
2022/10/10 14:48:59;;;;;;;6.43;2.55;;;;;;;;;;5050161;28;20045;-43
2022/10/10 14:51:24;;;;;;;5.28;2.47;;;;;;;;;;5046805;28;20029;-44
2022/10/10 14:53:49;;;;;;;7.10;2.45;;;;;;;;;;5052771;28;20504;-47
2022/10/10 14:56:15;;;;;;;4.80;2.60;;;;;;;;;;5047334;28;20041;-44
2022/10/10 14:58:40;;;;;;;10.93;3.22;;;;;;;;;;5043776;28;20045;-44
2022/10/10 15:01:06;;;;;;;10.10;3.15;;;;;;;;;;5048189;28;20082;-45
2022/10/10 15:03:31;;;;;;;7.18;2.55;;;;;;;;;;5046935;28;20033;-46
2022/10/10 15:05:56;;;;;;;9.07;2.85;;;;;;;;;;5037431;28;20112;-48